Time;durP1;ratioP1;P1;durP2;ratioP2;P2;SDS_P1;SDS_P2;PMS_P1;PMS_P2;Temp;Humidity;BMP_temperature;BMP_pressure;BME280_temperature;BME280_humidity;BME280_pressure;Samples;Min_cycle;Max_cycle;Signal;HPM_P1;HPM_P2
2021/05/27 00:00:29;;;;;;;3.90;2.77;;;;;;;18.73;54.90;99970.53;2056377;28;20023;-54
2021/05/27 00:01:29;;;;;;;5.05;2.90;;;;;;;18.75;54.95;99970.41;2051763;28;20031;-53
2021/05/27 00:02:30;;;;;;;8.00;2.87;;;;;;;18.75;55.00;99968.53;2052369;28;20026;-53
2021/05/27 00:03:30;;;;;;;4.07;2.63;;;;;;;18.74;54.80;99966.81;2056411;28;20034;-52
2021/05/27 00:04:30;;;;;;;5.13;3.07;;;;;;;18.75;54.84;99973.13;2056934;28;20225;-51
2021/05/27 00:05:31;;;;;;;4.70;2.93;;;;;;;18.74;54.94;99969.56;2056848;28;20019;-52
2021/05/27 00:06:31;;;;;;;6.47;2.93;;;;;;;18.75;55.02;99970.41;2052580;28;20035;-52
2021/05/27 00:07:32;;;;;;;4.53;2.80;;;;;;;18.75;55.05;99973.13;2046163;29;20047;-53
2021/05/27 00:08:32;;;;;;;3.93;3.07;;;;;;;18.73;55.29;99976.00;2054410;28;20058;-53
2021/05/27 00:09:33;;;;;;;4.90;2.77;;;;;;;18.73;54.89;99975.16;2056695;28;20081;-52
2021/05/27 00:10:34;;;;;;;5.03;2.73;;;;;;;18.74;55.06;99968.66;2055285;28;20073;-49
2021/05/27 00:11:35;;;;;;;6.20;3.25;;;;;;;18.74;55.11;99972.28;2054918;28;20167;-53
2021/05/27 00:12:35;;;;;;;4.43;2.60;;;;;;;18.74;55.04;99969.56;2055709;28;20046;-53
2021/05/27 00:13:36;;;;;;;5.90;3.00;;;;;;;18.74;55.04;99971.41;2057161;28;20037;-53
2021/05/27 00:14:36;;;;;;;5.93;2.63;;;;;;;18.73;54.93;99967.81;2049318;28;20079;-53
2021/05/27 00:15:38;;;;;;;3.87;2.53;;;;;;;18.73;55.06;99965.09;2049894;28;20035;-54
2021/05/27 00:16:38;;;;;;;4.80;2.15;;;;;;;18.73;55.04;99967.81;2056456;28;20037;-53
2021/05/27 00:17:39;;;;;;;3.83;2.80;;;;;;;18.73;55.03;99965.09;2055710;28;20677;-50
2021/05/27 00:18:40;;;;;;;4.90;2.78;;;;;;;18.74;55.13;99966.81;2056240;28;20027;-54
2021/05/27 00:19:41;;;;;;;4.13;2.90;;;;;;;18.73;54.96;99965.09;2050489;28;20130;-53
2021/05/27 00:20:41;;;;;;;6.23;2.67;;;;;;;18.74;55.08;99960.47;2049026;28;20512;-52
2021/05/27 00:21:42;;;;;;;4.83;2.90;;;;;;;18.74;54.96;99960.47;2057162;28;20675;-53
2021/05/27 00:22:42;;;;;;;6.03;3.23;;;;;;;18.73;55.01;99962.34;2052337;28;20026;-52
2021/05/27 00:23:43;;;;;;;6.10;3.23;;;;;;;18.73;55.07;99959.63;2057204;28;20118;-51
2021/05/27 00:24:43;;;;;;;4.87;3.13;;;;;;;18.74;55.09;99965.94;2056402;28;20034;-53
2021/05/27 00:25:44;;;;;;;6.63;2.83;;;;;;;18.73;54.96;99956.88;2056840;28;20022;-52
2021/05/27 00:26:44;;;;;;;4.10;2.57;;;;;;;18.73;54.93;99965.09;2049464;28;20023;-53
2021/05/27 00:27:46;;;;;;;4.73;2.73;;;;;;;18.72;55.01;99957.91;2053944;28;20077;-52
2021/05/27 00:28:46;;;;;;;6.22;3.25;;;;;;;18.73;55.14;99959.63;2057137;28;20026;-53
2021/05/27 00:29:47;;;;;;;6.23;3.00;;;;;;;18.73;55.05;99954.16;2056669;28;20050;-52
2021/05/27 00:30:47;;;;;;;4.33;2.60;;;;;;;18.73;54.94;99954.16;2056418;28;20023;-53
2021/05/27 00:31:48;;;;;;;3.97;2.67;;;;;;;18.73;55.03;99954.16;2055332;28;20039;-53
2021/05/27 00:32:49;;;;;;;4.23;2.77;;;;;;;18.72;54.94;99957.91;2056442;28;20197;-53
2021/05/27 00:33:49;;;;;;;4.85;2.67;;;;;;;18.73;54.97;99956.88;2057301;28;20027;-54
2021/05/27 00:34:50;;;;;;;4.67;3.30;;;;;;;18.73;54.90;99956.88;2056171;28;20033;-49
2021/05/27 00:35:50;;;;;;;4.73;2.63;;;;;;;18.74;55.10;99960.47;2057003;28;20109;-52
2021/05/27 00:36:51;;;;;;;4.37;2.73;;;;;;;18.73;55.12;99959.63;2056032;28;20031;-51
2021/05/27 00:37:51;;;;;;;4.27;2.33;;;;;;;18.73;55.18;99958.78;2052251;28;20035;-52
2021/05/27 00:38:52;;;;;;;4.87;2.93;;;;;;;18.72;54.93;99957.91;2057113;28;20428;-51
2021/05/27 00:39:52;;;;;;;5.67;3.03;;;;;;;18.72;55.01;99957.91;2056202;28;20034;-53
2021/05/27 00:40:53;;;;;;;4.53;2.90;;;;;;;18.73;55.07;99958.78;2057062;28;20074;-53
2021/05/27 00:41:54;;;;;;;5.23;2.73;;;;;;;18.73;55.07;99956.88;2054905;28;20033;-50
2021/05/27 00:42:54;;;;;;;6.37;2.87;;;;;;;18.72;55.02;99963.38;2056109;28;20041;-53
2021/05/27 00:43:55;;;;;;;4.57;2.43;;;;;;;18.72;54.96;99955.19;2057050;28;20130;-52
2021/05/27 00:45:07;;;;;;;5.27;2.80;;;;;;;18.70;55.15;99959.94;2055109;28;20181;-53
2021/05/27 00:46:07;;;;;;;5.18;2.90;;;;;;;18.71;54.98;99950.72;2056974;28;20077;-53
2021/05/27 00:47:09;;;;;;;3.70;2.57;;;;;;;18.71;54.99;99961.63;2056451;28;20050;-53
2021/05/27 00:48:56;;;;;;;5.00;3.08;;;;;;;18.72;55.06;99957.06;2056209;28;20145;-50
2021/05/27 00:49:30;;;;;;;4.95;2.75;;;;;;;18.70;55.06;99959.06;2056574;28;20105;-51
2021/05/27 00:50:31;;;;;;;5.47;3.07;;;;;;;18.71;55.23;99955.31;2056203;28;20318;-54
2021/05/27 00:51:31;;;;;;;3.93;2.23;;;;;;;18.71;55.14;99955.31;2056866;28;20089;-53
2021/05/27 00:52:32;;;;;;;4.73;2.80;;;;;;;18.71;55.12;99960.78;2054319;28;20090;-51
2021/05/27 00:53:33;;;;;;;5.18;3.13;;;;;;;18.71;55.17;99955.31;2053872;28;20071;-50
2021/05/27 00:54:33;;;;;;;6.83;2.50;;;;;;;18.70;55.25;99957.19;2056209;28;20428;-52
2021/05/27 00:55:34;;;;;;;4.70;2.90;;;;;;;18.71;55.09;99958.91;2055468;28;20031;-51
2021/05/27 00:56:35;;;;;;;4.03;2.27;;;;;;;18.70;55.20;99954.47;2056954;28;20061;-52
2021/05/27 00:57:37;;;;;;;4.70;2.60;;;;;;;18.70;55.07;99954.47;2053938;28;20045;-52
2021/05/27 00:58:39;;;;;;;;;;;;;;;18.67;55.35;99960.25;2056580;28;20112;-54
2021/05/27 00:59:39;;;;;;;4.18;2.60;;;;;;;18.68;55.24;99961.94;2056956;28;20013;-53
2021/05/27 01:00:40;;;;;;;3.10;2.17;;;;;;;18.68;55.25;99959.22;2054374;28;20046;-53
2021/05/27 01:01:42;;;;;;;4.50;2.87;;;;;;;18.68;55.31;99955.63;2057104;28;20075;-53
2021/05/27 01:02:42;;;;;;;4.65;2.80;;;;;;;18.68;55.16;99956.50;2052944;28;20449;-53
2021/05/27 01:03:43;;;;;;;4.17;2.77;;;;;;;18.69;55.15;99955.50;2055373;28;20125;-53
2021/05/27 01:04:43;;;;;;;6.50;3.13;;;;;;;18.69;55.15;99954.59;2056873;28;20471;-52
2021/05/27 01:05:44;;;;;;;3.77;2.30;;;;;;;18.69;55.18;99952.75;2055548;28;20118;-53
2021/05/27 01:06:45;;;;;;;3.53;2.93;;;;;;;18.69;55.17;99952.75;2056280;28;20037;-53
2021/05/27 01:07:46;;;;;;;3.27;2.37;;;;;;;18.69;55.01;99947.31;2050510;28;20034;-53
2021/05/27 01:08:46;;;;;;;4.53;2.83;;;;;;;18.69;55.25;99941.84;2056236;28;20086;-54
2021/05/27 01:09:47;;;;;;;4.43;2.67;;;;;;;18.69;55.23;99944.56;2052700;28;20037;-54
2021/05/27 01:10:47;;;;;;;5.97;2.93;;;;;;;18.69;55.10;99947.31;2051724;28;20023;-52
2021/05/27 01:11:47;;;;;;;4.47;2.80;;;;;;;18.68;55.08;99945.56;2056064;28;20527;-53
2021/05/27 01:12:48;;;;;;;4.50;2.90;;;;;;;18.69;55.15;99946.41;2055966;28;20098;-52
2021/05/27 01:13:49;;;;;;;5.00;2.50;;;;;;;18.68;55.22;99945.56;2054816;28;20342;-53
2021/05/27 01:16:16;;;;;;;4.57;3.10;;;;;;;18.68;55.24;99945.56;2055804;28;20035;-53
2021/05/27 01:17:16;;;;;;;3.90;2.70;;;;;;;18.67;55.19;99938.41;2056469;28;20072;-52
2021/05/27 01:18:19;;;;;;;4.67;2.60;;;;;;;18.67;55.43;99945.69;2055702;28;20097;-53
2021/05/27 01:19:19;;;;;;;3.33;2.55;;;;;;;18.68;55.34;99948.28;2056406;28;20030;-49
2021/05/27 01:20:20;;;;;;;4.47;3.00;;;;;;;18.68;55.47;99947.44;2055949;28;20043;-50
2021/05/27 01:21:21;;;;;;;3.13;2.47;;;;;;;18.68;55.29;99948.28;2056378;28;20030;-54
2021/05/27 01:22:22;;;;;;;3.90;2.87;;;;;;;18.68;55.33;99948.28;2056226;28;20386;-49
2021/05/27 01:23:26;;;;;;;5.25;2.95;;;;;;;18.67;55.43;99948.44;2056151;28;20117;-54
2021/05/27 01:24:26;;;;;;;4.65;2.67;;;;;;;18.67;55.38;99949.31;2056239;28;20034;-54
2021/05/27 01:25:27;;;;;;;6.50;2.67;;;;;;;18.67;55.38;99954.78;2050837;28;20451;-53
2021/05/27 01:26:27;;;;;;;5.23;2.50;;;;;;;18.68;55.35;99951.03;2054197;28;20027;-52
2021/05/27 01:27:28;;;;;;;3.87;2.50;;;;;;;18.67;55.37;99954.78;2056243;28;20026;-53
2021/05/27 01:28:31;;;;;;;3.87;2.60;;;;;;;18.67;55.53;99954.78;2056240;28;20049;-51
2021/05/27 01:29:32;;;;;;;5.70;3.15;;;;;;;18.68;55.52;99953.75;2056035;28;20453;-53
2021/05/27 01:30:32;;;;;;;3.70;2.60;;;;;;;18.68;55.40;99955.63;2056311;28;20089;-50
2021/05/27 01:31:33;;;;;;;5.37;3.23;;;;;;;18.69;55.46;99958.22;2051399;28;20118;-52
2021/05/27 01:32:33;;;;;;;4.17;2.57;;;;;;;18.67;55.43;99960.25;2052645;28;20038;-51
2021/05/27 01:33:35;;;;;;;5.70;3.33;;;;;;;18.68;55.48;99951.03;2052464;28;20125;-54
2021/05/27 01:34:35;;;;;;;4.32;2.83;;;;;;;18.67;55.44;99952.06;2052927;28;20031;-50
2021/05/27 01:35:36;;;;;;;5.43;2.93;;;;;;;18.66;55.61;99947.59;2050163;28;20041;-51
2021/05/27 01:36:43;;;;;;;4.43;2.60;;;;;;;18.66;55.55;99947.59;2048241;28;20088;-53
2021/05/27 01:37:45;;;;;;;3.75;2.40;;;;;;;18.67;55.49;99943.84;2053842;28;20251;-51
2021/05/27 01:38:45;;;;;;;8.32;3.35;;;;;;;18.67;55.55;99948.44;2055560;28;20026;-54
2021/05/27 01:39:47;;;;;;;5.60;3.20;;;;;;;18.66;55.43;99939.38;2054859;28;20082;-51
2021/05/27 01:40:49;;;;;;;4.88;2.50;;;;;;;18.66;55.53;99946.72;2053392;28;20031;-52
2021/05/27 01:41:51;;;;;;;;;;;;;;;18.61;55.64;99958.09;2056239;28;20042;-51
2021/05/27 01:42:54;;;;;;;4.10;2.78;;;;;;;18.62;55.54;99946.19;2056173;28;19914;-53
2021/05/27 01:43:54;;;;;;;4.65;2.08;;;;;;;18.64;55.57;99952.31;2055440;28;20027;-52
2021/05/27 01:44:55;;;;;;;6.03;3.13;;;;;;;18.64;55.61;99952.31;2055698;28;20042;-52
2021/05/27 01:45:56;;;;;;;4.10;2.77;;;;;;;18.65;55.37;99951.34;2056119;28;20042;-52
2021/05/27 01:46:56;;;;;;;5.23;2.93;;;;;;;18.65;55.50;99954.06;2055759;28;20441;-54
2021/05/27 01:47:57;;;;;;;3.93;2.87;;;;;;;18.66;55.54;99952.19;2056350;28;20319;-51
2021/05/27 01:48:57;;;;;;;3.60;2.60;;;;;;;18.66;55.44;99952.19;2054960;28;20062;-53
2021/05/27 01:49:58;;;;;;;4.70;2.43;;;;;;;18.66;55.41;99952.19;2055383;28;20471;-53
2021/05/27 01:50:58;;;;;;;3.43;2.10;;;;;;;18.66;55.56;99952.19;2055983;28;20432;-52
2021/05/27 01:51:59;;;;;;;4.90;2.63;;;;;;;18.66;55.38;99963.97;2054900;28;20034;-52
2021/05/27 01:53:02;;;;;;;4.93;3.03;;;;;;;18.66;55.54;99955.78;2055892;28;20018;-52
2021/05/27 01:54:03;;;;;;;5.22;2.70;;;;;;;18.66;55.34;99955.78;2055669;28;20113;-52
2021/05/27 01:55:05;;;;;;;4.35;2.70;;;;;;;18.64;55.33;99955.94;2055581;28;20019;-52
2021/05/27 01:56:05;;;;;;;4.00;2.30;;;;;;;18.65;55.54;99951.34;2056084;28;20042;-53
2021/05/27 01:57:06;;;;;;;4.03;2.70;;;;;;;18.65;55.46;99943.16;2055253;28;20122;-53
2021/05/27 01:58:06;;;;;;;3.93;2.50;;;;;;;18.65;55.55;99951.34;2055758;28;20457;-49
2021/05/27 01:59:07;;;;;;;4.63;2.40;;;;;;;18.66;55.49;99950.31;2056004;28;20701;-54
2021/05/27 02:00:08;;;;;;;8.73;2.57;;;;;;;18.66;55.24;99958.50;2055902;28;20063;-52
2021/05/27 02:01:09;;;;;;;5.50;2.60;;;;;;;18.66;55.37;99953.03;2048563;28;20031;-53
2021/05/27 02:02:09;;;;;;;4.03;2.63;;;;;;;18.65;55.43;99956.78;2053368;28;20944;-51
2021/05/27 02:03:10;;;;;;;4.60;3.07;;;;;;;18.65;55.43;99948.59;2055783;28;20114;-52
2021/05/27 02:04:10;;;;;;;4.30;2.40;;;;;;;18.65;55.42;99956.78;2055698;28;20054;-53
2021/05/27 02:05:12;;;;;;;3.30;2.00;;;;;;;18.66;55.52;99952.19;2056010;28;20097;-54
2021/05/27 02:06:12;;;;;;;3.40;2.60;;;;;;;18.64;55.58;99955.06;2055180;28;20215;-54
2021/05/27 02:07:14;;;;;;;4.87;3.17;;;;;;;18.64;55.49;99955.06;2055489;28;20058;-52
2021/05/27 02:08:18;;;;;;;6.57;2.65;;;;;;;18.65;55.38;99954.06;2057509;28;20023;-52
2021/05/27 02:09:19;;;;;;;3.58;2.38;;;;;;;18.64;55.50;99949.59;2054776;28;20027;-53
2021/05/27 02:10:19;;;;;;;3.53;2.23;;;;;;;18.63;55.58;99947.88;2052900;28;20027;-52
2021/05/27 02:11:20;;;;;;;4.93;3.00;;;;;;;18.64;55.56;99946.88;2056238;28;20027;-52
2021/05/27 02:12:21;;;;;;;4.70;3.27;;;;;;;18.64;55.52;99952.31;2055404;28;20030;-52
2021/05/27 02:13:22;;;;;;;4.80;2.83;;;;;;;18.66;55.54;99946.72;2056217;28;20047;-53
2021/05/27 02:14:23;;;;;;;4.20;2.78;;;;;;;18.65;55.38;99945.88;2055955;28;20440;-52
2021/05/27 02:15:24;;;;;;;5.83;2.63;;;;;;;18.64;55.53;99945.03;2054900;28;20114;-51
2021/05/27 02:16:24;;;;;;;5.37;3.03;;;;;;;18.64;55.43;99941.41;2055422;28;20469;-50
2021/05/27 02:17:25;;;;;;;5.43;3.17;;;;;;;18.64;55.37;99938.69;2055227;28;20046;-51
2021/05/27 02:18:25;;;;;;;3.70;2.40;;;;;;;18.64;55.38;99949.59;2056204;28;20030;-53
2021/05/27 02:19:26;;;;;;;6.27;2.63;;;;;;;18.63;55.60;99946.00;2055195;28;20095;-52
2021/05/27 02:20:26;;;;;;;3.60;2.70;;;;;;;18.63;55.45;99942.44;2055669;28;20058;-51
2021/05/27 02:21:27;;;;;;;5.27;3.37;;;;;;;18.64;55.37;99939.56;2055304;28;20042;-53
2021/05/27 02:22:27;;;;;;;3.70;2.37;;;;;;;18.64;55.52;99938.69;2055312;28;20491;-53
2021/05/27 02:23:28;;;;;;;3.10;2.53;;;;;;;18.63;55.48;99936.97;2056175;28;20094;-54
2021/05/27 02:24:28;;;;;;;5.30;2.60;;;;;;;18.63;55.55;99936.97;2055139;28;20031;-52
2021/05/27 02:25:29;;;;;;;3.37;2.30;;;;;;;18.62;55.54;99936.13;2056066;28;20050;-53
2021/05/27 02:26:29;;;;;;;2.97;2.40;;;;;;;18.61;55.58;99937.09;2047082;29;20043;-52
2021/05/27 02:27:30;;;;;;;4.27;2.67;;;;;;;18.63;55.49;99936.97;2003676;28;1250200;-53
2021/05/27 02:28:30;;;;;;;4.07;2.10;;;;;;;18.62;55.40;99932.53;2056485;28;20125;-53
2021/05/27 02:29:31;;;;;;;4.33;2.40;;;;;;;18.61;55.63;99928.91;2055131;28;20509;-53
2021/05/27 02:30:31;;;;;;;4.83;2.67;;;;;;;18.62;55.57;99929.81;2047858;29;20065;-52
2021/05/27 02:31:32;;;;;;;4.50;2.73;;;;;;;18.62;55.53;99929.81;2054963;28;20169;-54
2021/05/27 02:32:33;;;;;;;3.33;2.50;;;;;;;18.62;55.81;99935.25;2054978;28;20136;-52
2021/05/27 02:33:33;;;;;;;4.40;2.83;;;;;;;18.61;55.50;99933.53;2047983;29;20031;-52
2021/05/27 02:34:34;;;;;;;4.47;2.97;;;;;;;18.62;55.50;99935.25;2051913;28;20046;-54
2021/05/27 02:35:34;;;;;;;3.87;2.77;;;;;;;18.61;55.52;99933.53;2056405;28;20061;-51
2021/05/27 02:36:35;;;;;;;4.33;2.40;;;;;;;18.60;55.48;99932.66;2055746;28;20086;-52
2021/05/27 02:37:35;;;;;;;4.37;2.33;;;;;;;18.61;55.54;99933.53;2056388;28;20033;-52
2021/05/27 02:38:36;;;;;;;3.10;2.37;;;;;;;18.60;55.65;99932.66;2054362;28;20038;-50
2021/05/27 02:39:37;;;;;;;3.20;2.30;;;;;;;18.61;55.65;99928.06;2056750;28;20027;-53
2021/05/27 02:40:37;;;;;;;5.57;2.43;;;;;;;18.61;55.71;99928.06;2057779;28;20126;-50
2021/05/27 02:41:38;;;;;;;4.03;2.33;;;;;;;18.61;55.68;99928.91;2057333;28;20023;-51
2021/05/27 02:42:38;;;;;;;4.13;2.40;;;;;;;18.61;55.60;99922.59;2057772;28;20061;-52
2021/05/27 02:43:39;;;;;;;3.80;2.70;;;;;;;18.61;55.66;99922.59;2057049;28;20081;-54
2021/05/27 02:44:39;;;;;;;4.40;2.50;;;;;;;18.61;55.50;99911.69;2057410;28;20026;-53
2021/05/27 02:45:40;;;;;;;4.17;3.03;;;;;;;18.61;55.67;99919.88;2050083;28;20126;-51
2021/05/27 02:46:40;;;;;;;3.27;2.63;;;;;;;18.60;55.60;99916.28;2053906;28;20374;-52
2021/05/27 02:47:41;;;;;;;4.70;2.53;;;;;;;18.61;55.58;99919.88;2057501;28;20029;-51
2021/05/27 02:48:41;;;;;;;4.27;2.40;;;;;;;18.60;55.65;99920.91;2057266;28;20049;-52
2021/05/27 02:49:42;;;;;;;6.57;2.87;;;;;;;18.61;55.74;99917.16;2057550;28;20054;-52
2021/05/27 02:50:43;;;;;;;3.63;2.37;;;;;;;18.60;55.65;99918.16;2057271;28;20070;-52
2021/05/27 02:51:43;;;;;;;4.13;2.70;;;;;;;18.60;55.61;99920.91;2056536;28;20481;-53
2021/05/27 02:52:44;;;;;;;4.90;2.70;;;;;;;18.60;55.55;99924.47;2057470;28;20039;-52
2021/05/27 02:53:44;;;;;;;4.23;2.83;;;;;;;18.59;55.73;99924.63;2057690;28;20077;-51
2021/05/27 02:54:45;;;;;;;3.93;2.40;;;;;;;18.60;55.65;99920.91;2056665;28;20059;-50
2021/05/27 02:55:45;;;;;;;4.63;2.70;;;;;;;18.60;55.70;99921.75;2056742;28;20409;-53
2021/05/27 02:56:46;;;;;;;4.47;2.10;;;;;;;18.60;55.59;99920.91;2056701;28;21955;-51
2021/05/27 02:57:46;;;;;;;4.67;2.80;;;;;;;18.60;55.63;99924.47;2057233;28;20170;-50
2021/05/27 02:58:46;;;;;;;4.90;2.77;;;;;;;18.60;55.71;99924.47;2055856;28;20029;-51
2021/05/27 02:59:47;;;;;;;4.17;2.70;;;;;;;18.60;55.64;99926.34;2056353;28;20468;-53
2021/05/27 03:00:48;;;;;;;4.40;2.20;;;;;;;18.59;55.57;99917.31;2057777;28;20034;-52
2021/05/27 03:01:48;;;;;;;5.40;3.37;;;;;;;18.59;55.63;99913.69;2057291;28;20035;-51
2021/05/27 03:02:48;;;;;;;5.33;2.70;;;;;;;18.60;55.73;99915.44;2057922;28;20038;-50
2021/05/27 03:03:49;;;;;;;3.77;2.47;;;;;;;18.59;55.61;99916.44;2053878;28;20106;-51
2021/05/27 03:04:49;;;;;;;5.07;2.50;;;;;;;18.59;55.61;99917.31;2056951;28;20417;-51
2021/05/27 03:05:51;;;;;;;5.97;2.40;;;;;;;18.59;55.61;99919.16;2057292;28;20070;-51
2021/05/27 03:06:51;;;;;;;3.65;2.60;;;;;;;18.59;55.72;99919.16;2057419;28;20049;-50
2021/05/27 03:07:52;;;;;;;4.50;2.50;;;;;;;18.60;55.65;99921.75;2057679;28;20031;-52
2021/05/27 03:08:52;;;;;;;6.53;2.37;;;;;;;18.60;55.63;99920.91;2054242;28;20676;-49
2021/05/27 03:09:53;;;;;;;3.23;2.63;;;;;;;18.60;55.47;99920.91;2055331;28;20027;-50
2021/05/27 03:10:53;;;;;;;3.80;2.97;;;;;;;18.59;55.51;99919.16;2054801;28;20030;-52
2021/05/27 03:11:54;;;;;;;3.70;2.53;;;;;;;18.59;55.45;99924.63;2052038;28;20023;-52
2021/05/27 03:12:55;;;;;;;3.13;2.20;;;;;;;18.59;55.71;99922.78;2057544;28;20180;-51
2021/05/27 03:13:55;;;;;;;3.30;2.20;;;;;;;18.58;55.54;99926.50;2057172;28;20038;-51
2021/05/27 03:14:56;;;;;;;7.43;3.63;;;;;;;18.58;55.70;99923.75;2057853;28;20106;-51
2021/05/27 03:15:56;;;;;;;2.77;2.00;;;;;;;18.58;55.69;99928.38;2056395;28;20479;-52
2021/05/27 03:16:56;;;;;;;5.00;2.50;;;;;;;18.59;55.68;99933.69;2057693;28;20058;-51
2021/05/27 03:18:07;;;;;;;3.37;2.10;;;;;;;18.58;55.48;99931.09;2056830;28;20034;-52
2021/05/27 03:19:07;;;;;;;2.97;2.58;;;;;;;18.58;55.68;99933.84;2056801;28;20054;-51
2021/05/27 03:20:09;;;;;;;5.70;2.77;;;;;;;18.58;55.66;99928.38;2057066;28;20037;-50
2021/05/27 03:21:09;;;;;;;6.43;3.55;;;;;;;18.59;55.42;99930.09;2057283;28;20030;-50
2021/05/27 03:22:10;;;;;;;5.00;2.80;;;;;;;18.59;55.59;99930.09;2053567;28;20030;-52
2021/05/27 03:23:11;;;;;;;3.67;2.37;;;;;;;18.59;55.60;99938.28;2057464;28;20032;-51
2021/05/27 03:24:11;;;;;;;3.22;2.20;;;;;;;18.58;55.50;99928.38;2057001;28;20015;-48
2021/05/27 03:25:12;;;;;;;3.37;2.40;;;;;;;18.59;55.70;99927.34;2057459;28;20149;-51
2021/05/27 03:26:14;;;;;;;5.00;2.75;;;;;;;18.59;55.61;99930.09;2056751;28;20034;-52
2021/05/27 03:27:15;;;;;;;;;;;;;;;18.54;55.58;99929.69;2057844;28;20109;-52
2021/05/27 03:28:15;;;;;;;4.40;2.47;;;;;;;18.54;55.63;99926.94;2057231;28;19922;-52
2021/05/27 03:29:17;;;;;;;3.17;2.53;;;;;;;18.54;55.49;99927.78;2057056;28;20046;-53
2021/05/27 03:30:18;;;;;;;3.30;2.70;;;;;;;18.56;55.64;99919.47;2057530;28;20449;-51
2021/05/27 03:31:19;;;;;;;3.47;1.92;;;;;;;18.56;55.77;99923.06;2055414;28;20109;-52
2021/05/27 03:32:19;;;;;;;4.47;2.67;;;;;;;18.57;55.60;99918.44;2057607;28;20026;-51
2021/05/27 03:33:19;;;;;;;5.13;2.87;;;;;;;18.55;55.59;99921.34;2056685;28;20023;-52
2021/05/27 03:34:20;;;;;;;3.63;2.07;;;;;;;18.55;55.64;99918.63;2056876;28;20180;-53
2021/05/27 03:35:20;;;;;;;3.77;2.43;;;;;;;18.56;55.47;99919.47;2056482;28;20037;-50
2021/05/27 03:36:21;;;;;;;4.50;2.37;;;;;;;18.56;55.55;99922.19;2056730;28;20081;-52
2021/05/27 03:37:21;;;;;;;4.50;2.20;;;;;;;18.57;55.58;99921.19;2057642;28;20022;-51
2021/05/27 03:38:22;;;;;;;3.20;2.10;;;;;;;18.57;55.64;99921.19;2056789;28;20062;-52
2021/05/27 03:39:22;;;;;;;6.40;3.20;;;;;;;18.57;55.59;99918.44;2053896;28;20118;-49
2021/05/27 03:40:23;;;;;;;4.67;2.30;;;;;;;18.57;55.49;99911.16;2056312;28;20034;-52
2021/05/27 03:41:23;;;;;;;4.17;3.07;;;;;;;18.58;55.49;99922.91;2056294;28;20033;-52
2021/05/27 03:42:24;;;;;;;4.63;2.20;;;;;;;18.58;55.46;99918.31;2057569;28;20238;-53
2021/05/27 03:43:24;;;;;;;4.67;2.97;;;;;;;18.57;55.59;99922.06;2056410;28;20038;-51
2021/05/27 03:44:25;;;;;;;3.80;2.60;;;;;;;18.59;55.52;99930.09;2057566;28;20532;-52
2021/05/27 03:45:28;;;;;;;4.10;2.50;;;;;;;18.58;55.63;99928.38;2055565;28;20489;-50
2021/05/27 03:46:31;;;;;;;4.10;2.25;;;;;;;18.58;55.52;99926.50;2056569;28;20143;-52
2021/05/27 03:47:31;;;;;;;4.03;2.60;;;;;;;18.58;55.62;99933.84;2048506;29;20127;-51
2021/05/27 03:48:32;;;;;;;4.10;2.20;;;;;;;18.58;55.43;99934.69;2047166;28;20039;-52
2021/05/27 03:49:32;;;;;;;3.07;2.20;;;;;;;18.58;55.63;99936.56;2049110;28;20122;-53
2021/05/27 03:50:33;;;;;;;4.37;2.67;;;;;;;18.58;55.50;99936.56;2056428;28;20019;-52
2021/05/27 03:51:34;;;;;;;4.73;3.23;;;;;;;18.57;55.52;99937.56;2056641;28;20306;-52
2021/05/27 03:52:35;;;;;;;3.70;2.50;;;;;;;18.57;55.40;99934.81;2057221;28;20029;-52
2021/05/27 03:53:35;;;;;;;4.30;2.45;;;;;;;18.57;55.58;99943.00;2056837;28;20022;-48
2021/05/27 03:54:36;;;;;;;5.17;2.73;;;;;;;18.56;55.54;99931.25;2057195;28;20031;-50
2021/05/27 03:55:36;;;;;;;3.77;2.50;;;;;;;18.56;55.59;99936.69;2056771;28;20022;-50
2021/05/27 03:56:37;;;;;;;5.27;2.37;;;;;;;18.56;55.52;99936.69;2056470;28;20030;-53
2021/05/27 03:57:37;;;;;;;4.00;3.13;;;;;;;18.56;55.55;99933.97;2056600;28;20031;-51
2021/05/27 04:01:16;;;;;;;3.72;2.65;;;;;;;18.54;55.65;99932.41;2057501;28;20031;-51
2021/05/27 04:02:16;;;;;;;3.53;2.57;;;;;;;18.55;55.71;99934.16;2055885;28;20019;-53
2021/05/27 04:03:17;;;;;;;4.37;2.70;;;;;;;18.53;55.49;99930.69;2057415;28;20038;-51
2021/05/27 04:07:10;;;;;;;3.88;2.30;;;;;;;18.53;55.68;99933.44;2057148;28;20023;-51
2021/05/27 04:08:11;;;;;;;4.13;2.78;;;;;;;18.53;55.84;99936.16;2057335;28;20142;-52
2021/05/27 04:09:11;;;;;;;3.37;2.50;;;;;;;18.52;55.57;99928.97;2056866;28;20023;-50
2021/05/27 04:10:12;;;;;;;2.73;2.00;;;;;;;18.53;55.70;99934.28;2050185;28;20028;-51
2021/05/27 04:11:12;;;;;;;3.63;2.83;;;;;;;18.53;55.73;99928.81;2051293;28;20031;-52
2021/05/27 04:13:32;;;;;;;5.13;2.65;;;;;;;18.53;55.64;99933.44;2056491;28;20409;-52
2021/05/27 04:14:32;;;;;;;4.00;2.23;;;;;;;18.53;55.59;99938.88;2056117;28;20058;-53
2021/05/27 04:15:35;;;;;;;3.40;2.37;;;;;;;18.54;55.72;99937.88;2056346;28;20046;-50
2021/05/27 04:16:35;;;;;;;4.53;2.60;;;;;;;18.54;55.64;99943.31;2057140;28;20027;-50
2021/05/27 04:17:36;;;;;;;3.87;2.67;;;;;;;18.53;55.74;99939.75;2055675;28;20413;-52
2021/05/27 04:18:36;;;;;;;3.93;2.50;;;;;;;18.53;55.68;99942.47;2056514;28;20035;-52
2021/05/27 04:19:36;;;;;;;3.47;2.30;;;;;;;18.54;55.73;99941.44;2056746;28;20023;-52
2021/05/27 04:20:49;;;;;;;6.37;3.07;;;;;;;18.53;55.59;99947.06;2056354;28;20457;-52
2021/05/27 04:21:49;;;;;;;6.85;2.45;;;;;;;18.54;55.73;99946.91;2049373;29;20334;-50
2021/05/27 04:22:50;;;;;;;3.47;2.40;;;;;;;18.54;55.52;99944.19;2055077;28;20110;-52
2021/05/27 04:23:50;;;;;;;3.50;2.43;;;;;;;18.54;55.67;99943.31;2056180;28;20103;-51
2021/05/27 04:24:51;;;;;;;3.53;2.47;;;;;;;18.54;55.57;99941.44;2056816;28;20023;-52
2021/05/27 04:25:51;;;;;;;3.87;2.47;;;;;;;18.54;55.55;99946.06;2055741;28;20086;-48
2021/05/27 04:26:52;;;;;;;4.60;2.87;;;;;;;18.54;55.55;99948.78;2057334;28;20045;-52
2021/05/27 04:27:53;;;;;;;4.93;2.43;;;;;;;18.53;55.53;99938.88;2056711;28;20807;-52
2021/05/27 04:28:54;;;;;;;5.05;3.13;;;;;;;18.53;55.68;99947.94;2054774;28;20034;-51
2021/05/27 04:29:55;;;;;;;4.60;2.10;;;;;;;18.54;55.60;99949.63;2055973;28;20350;-51
2021/05/27 04:31:11;;;;;;;5.10;2.50;;;;;;;18.54;55.56;99951.50;2056373;28;20125;-52
2021/05/27 04:33:30;;;;;;;3.28;2.50;;;;;;;18.54;55.62;99956.97;2055227;28;20031;-52
2021/05/27 04:34:31;;;;;;;3.73;3.10;;;;;;;18.53;55.66;99958.84;2055657;28;20027;-52
2021/05/27 04:35:34;;;;;;;2.90;2.00;;;;;;;18.53;55.64;99956.13;2056724;28;20037;-51
2021/05/27 04:36:35;;;;;;;3.67;2.35;;;;;;;18.53;55.64;99963.44;2055514;28;20103;-53
2021/05/27 04:37:35;;;;;;;4.27;2.40;;;;;;;18.52;55.70;99959.88;2056820;28;20038;-49
2021/05/27 04:38:36;;;;;;;4.50;3.00;;;;;;;18.53;55.56;99958.00;2057149;28;20030;-53
2021/05/27 04:39:36;;;;;;;3.80;2.17;;;;;;;18.53;55.71;99958.84;2054575;28;20126;-52
2021/05/27 04:40:39;;;;;;;3.80;2.67;;;;;;;18.53;55.56;99963.44;2053458;28;20034;-52
2021/05/27 04:41:39;;;;;;;3.55;2.22;;;;;;;18.54;55.62;99960.56;2056274;28;20038;-51
2021/05/27 04:42:41;;;;;;;4.30;1.90;;;;;;;18.54;55.48;99963.28;2057262;28;20026;-50
2021/05/27 04:43:41;;;;;;;5.68;3.38;;;;;;;18.55;55.65;99964.16;2055783;28;20098;-53
2021/05/27 04:44:42;;;;;;;3.73;2.50;;;;;;;18.53;55.56;99966.19;2056193;28;20034;-51
2021/05/27 04:45:42;;;;;;;3.10;2.50;;;;;;;18.53;55.55;99964.31;2056996;28;20073;-52
2021/05/27 04:46:43;;;;;;;4.30;2.87;;;;;;;18.54;55.61;99967.88;2055669;28;20664;-52
2021/05/27 04:47:44;;;;;;;5.20;2.80;;;;;;;18.53;55.75;99968.91;2056890;28;20763;-52
2021/05/27 04:48:44;;;;;;;4.50;2.47;;;;;;;18.54;55.65;99973.34;2055729;28;20054;-49
2021/05/27 04:49:46;;;;;;;5.27;2.60;;;;;;;18.53;55.53;99969.75;2053271;28;20409;-50
2021/05/27 04:50:52;;;;;;;6.55;2.78;;;;;;;18.53;55.54;99974.38;2055294;28;20137;-51
2021/05/27 04:51:53;;;;;;;3.65;2.30;;;;;;;18.53;55.64;99975.22;2056758;28;20046;-50
2021/05/27 04:52:53;;;;;;;5.07;3.07;;;;;;;18.53;55.53;99969.75;2056914;28;20456;-53
2021/05/27 04:53:54;;;;;;;3.73;2.70;;;;;;;18.53;55.59;99968.91;2055271;28;20042;-52
2021/05/27 04:54:54;;;;;;;4.23;2.87;;;;;;;18.54;55.46;99976.09;2056551;28;20054;-52
2021/05/27 04:55:56;;;;;;;4.43;2.30;;;;;;;18.53;55.66;99971.66;2056882;28;20557;-52
2021/05/27 04:56:57;;;;;;;5.05;2.80;;;;;;;18.54;55.64;99970.63;2055578;28;20050;-51